Washington, District of Columbia
Traffic Map
Current Weather Conditions
Washington, District of Columbia
Overcast
Overcast
19°
Feels Like: 19°
Wind Chill: 19° Ceiling: 1900
Heat Index: 19° Visibility: 10mi
Dew Point: 14° Wind: 6mph
Humidity: 75% Direction: 340° (NNW)
Pressure: 29.79in Gusts: 0mph
Raw Report DataKDCA 261552Z 34005KT 10SM OVC019 19/14 A2979 RMK AO2 SLP088 OCNL BINOVC T01890144
Traffic Incident Summary
Active as of:
Severity:
Category:
InformationThere was an issue retrieving the traffic information for this location. Please try a different location or try again shortly.
Advertisements
Track Severe Weather on mobile